sensor_id;sensor_type;location;lat;lon;timestamp;P1;durP1;ratioP1;P2;durP2;ratioP2
12296;SDS011;6211;49.124;9.152;2023-05-17T00:00:07;1.02;;;0.90;;
12296;SDS011;6211;49.124;9.152;2023-05-17T00:02:36;0.50;;;0.50;;
12296;SDS011;6211;49.124;9.152;2023-05-17T00:05:03;3.72;;;0.60;;
12296;SDS011;6211;49.124;9.152;2023-05-17T00:07:30;0.57;;;0.57;;
12296;SDS011;6211;49.124;9.152;2023-05-17T00:09:58;0.70;;;0.70;;
12296;SDS011;6211;49.124;9.152;2023-05-17T00:12:25;0.55;;;0.55;;
12296;SDS011;6211;49.124;9.152;2023-05-17T00:14:52;1.65;;;0.55;;
12296;SDS011;6211;49.124;9.152;2023-05-17T00:17:19;1.25;;;0.70;;
12296;SDS011;6211;49.124;9.152;2023-05-17T00:19:47;0.60;;;0.60;;
12296;SDS011;6211;49.124;9.152;2023-05-17T00:22:15;0.85;;;0.80;;
12296;SDS011;6211;49.124;9.152;2023-05-17T00:24:42;2.28;;;0.60;;
12296;SDS011;6211;49.124;9.152;2023-05-17T00:27:09;2.30;;;0.82;;
12296;SDS011;6211;49.124;9.152;2023-05-17T00:29:36;0.60;;;0.60;;
12296;SDS011;6211;49.124;9.152;2023-05-17T00:32:03;0.50;;;0.50;;
12296;SDS011;6211;49.124;9.152;2023-05-17T00:34:30;0.75;;;0.70;;
12296;SDS011;6211;49.124;9.152;2023-05-17T00:36:59;0.85;;;0.75;;
12296;SDS011;6211;49.124;9.152;2023-05-17T00:39:26;1.08;;;0.80;;
12296;SDS011;6211;49.124;9.152;2023-05-17T00:41:53;3.90;;;0.90;;
12296;SDS011;6211;49.124;9.152;2023-05-17T00:44:20;2.70;;;0.90;;
12296;SDS011;6211;49.124;9.152;2023-05-17T00:46:47;1.02;;;0.80;;
12296;SDS011;6211;49.124;9.152;2023-05-17T00:49:15;0.85;;;0.68;;
12296;SDS011;6211;49.124;9.152;2023-05-17T00:51:43;1.75;;;0.90;;
12296;SDS011;6211;49.124;9.152;2023-05-17T00:54:11;0.68;;;0.55;;
12296;SDS011;6211;49.124;9.152;2023-05-17T00:56:39;0.70;;;0.70;;
12296;SDS011;6211;49.124;9.152;2023-05-17T00:59:06;0.60;;;0.57;;
12296;SDS011;6211;49.124;9.152;2023-05-17T01:01:33;0.50;;;0.50;;
12296;SDS011;6211;49.124;9.152;2023-05-17T01:04:02;0.75;;;0.75;;
12296;SDS011;6211;49.124;9.152;2023-05-17T01:06:29;0.82;;;0.82;;
12296;SDS011;6211;49.124;9.152;2023-05-17T01:08:56;1.25;;;1.00;;
12296;SDS011;6211;49.124;9.152;2023-05-17T01:11:28;0.95;;;0.95;;
12296;SDS011;6211;49.124;9.152;2023-05-17T01:13:57;4.47;;;0.90;;
12296;SDS011;6211;49.124;9.152;2023-05-17T01:16:29;0.70;;;0.70;;
12296;SDS011;6211;49.124;9.152;2023-05-17T01:18:57;0.70;;;0.70;;
12296;SDS011;6211;49.124;9.152;2023-05-17T01:21:34;0.63;;;0.63;;
12296;SDS011;6211;49.124;9.152;2023-05-17T01:24:15;1.63;;;0.90;;
12296;SDS011;6211;49.124;9.152;2023-05-17T01:26:49;0.70;;;0.70;;
12296;SDS011;6211;49.124;9.152;2023-05-17T01:29:16;0.85;;;0.70;;
12296;SDS011;6211;49.124;9.152;2023-05-17T01:31:49;1.08;;;0.80;;
12296;SDS011;6211;49.124;9.152;2023-05-17T01:34:23;3.97;;;0.90;;
12296;SDS011;6211;49.124;9.152;2023-05-17T01:36:50;0.77;;;0.77;;
12296;SDS011;6211;49.124;9.152;2023-05-17T01:39:17;0.57;;;0.57;;
12296;SDS011;6211;49.124;9.152;2023-05-17T01:41:45;2.40;;;1.20;;
12296;SDS011;6211;49.124;9.152;2023-05-17T01:44:16;4.45;;;0.90;;
12296;SDS011;6211;49.124;9.152;2023-05-17T01:46:44;1.30;;;1.20;;
12296;SDS011;6211;49.124;9.152;2023-05-17T01:49:14;5.03;;;1.02;;
12296;SDS011;6211;49.124;9.152;2023-05-17T01:51:45;1.50;;;1.02;;
12296;SDS011;6211;49.124;9.152;2023-05-17T01:54:13;1.35;;;1.27;;
12296;SDS011;6211;49.124;9.152;2023-05-17T01:56:41;3.05;;;1.05;;
12296;SDS011;6211;49.124;9.152;2023-05-17T01:59:09;0.77;;;0.77;;
12296;SDS011;6211;49.124;9.152;2023-05-17T02:01:38;0.98;;;0.70;;
12296;SDS011;6211;49.124;9.152;2023-05-17T02:04:06;1.48;;;0.90;;
12296;SDS011;6211;49.124;9.152;2023-05-17T02:06:33;1.17;;;1.08;;
12296;SDS011;6211;49.124;9.152;2023-05-17T02:09:00;1.38;;;1.10;;
12296;SDS011;6211;49.124;9.152;2023-05-17T02:11:27;1.30;;;0.95;;
12296;SDS011;6211;49.124;9.152;2023-05-17T02:13:56;2.60;;;1.10;;
12296;SDS011;6211;49.124;9.152;2023-05-17T02:16:23;1.83;;;1.08;;
12296;SDS011;6211;49.124;9.152;2023-05-17T02:18:52;4.05;;;0.85;;
12296;SDS011;6211;49.124;9.152;2023-05-17T02:21:19;4.63;;;0.98;;
12296;SDS011;6211;49.124;9.152;2023-05-17T02:23:46;1.73;;;0.98;;
12296;SDS011;6211;49.124;9.152;2023-05-17T02:26:13;6.90;;;1.20;;
12296;SDS011;6211;49.124;9.152;2023-05-17T02:28:40;0.70;;;0.70;;
12296;SDS011;6211;49.124;9.152;2023-05-17T02:31:07;0.80;;;0.80;;
12296;SDS011;6211;49.124;9.152;2023-05-17T02:33:34;1.52;;;1.10;;
12296;SDS011;6211;49.124;9.152;2023-05-17T02:36:03;0.95;;;0.95;;
12296;SDS011;6211;49.124;9.152;2023-05-17T02:38:31;2.90;;;1.25;;
12296;SDS011;6211;49.124;9.152;2023-05-17T02:40:58;1.40;;;1.13;;
12296;SDS011;6211;49.124;9.152;2023-05-17T02:43:25;0.70;;;0.70;;
12296;SDS011;6211;49.124;9.152;2023-05-17T02:45:52;0.75;;;0.75;;
12296;SDS011;6211;49.124;9.152;2023-05-17T02:48:19;1.88;;;0.88;;
12296;SDS011;6211;49.124;9.152;2023-05-17T02:50:46;1.80;;;1.10;;
12296;SDS011;6211;49.124;9.152;2023-05-17T02:53:15;0.93;;;0.80;;
12296;SDS011;6211;49.124;9.152;2023-05-17T02:55:42;0.80;;;0.77;;
12296;SDS011;6211;49.124;9.152;2023-05-17T02:58:09;3.70;;;0.90;;
12296;SDS011;6211;49.124;9.152;2023-05-17T03:00:36;1.23;;;1.02;;
12296;SDS011;6211;49.124;9.152;2023-05-17T03:03:03;1.30;;;1.20;;
12296;SDS011;6211;49.124;9.152;2023-05-17T03:05:30;2.35;;;1.38;;
12296;SDS011;6211;49.124;9.152;2023-05-17T03:07:59;2.45;;;0.90;;
12296;SDS011;6211;49.124;9.152;2023-05-17T03:10:27;3.97;;;1.00;;
12296;SDS011;6211;49.124;9.152;2023-05-17T03:12:54;4.13;;;0.80;;
12296;SDS011;6211;49.124;9.152;2023-05-17T03:15:21;4.68;;;1.23;;
12296;SDS011;6211;49.124;9.152;2023-05-17T03:17:50;4.00;;;0.80;;
12296;SDS011;6211;49.124;9.152;2023-05-17T03:20:17;0.80;;;0.80;;
12296;SDS011;6211;49.124;9.152;2023-05-17T03:22:44;1.05;;;0.70;;
12296;SDS011;6211;49.124;9.152;2023-05-17T03:25:11;2.40;;;0.80;;
12296;SDS011;6211;49.124;9.152;2023-05-17T03:27:40;0.60;;;0.60;;
12296;SDS011;6211;49.124;9.152;2023-05-17T03:30:07;0.63;;;0.63;;
12296;SDS011;6211;49.124;9.152;2023-05-17T03:32:36;0.90;;;0.63;;
12296;SDS011;6211;49.124;9.152;2023-05-17T03:35:03;0.93;;;0.90;;
12296;SDS011;6211;49.124;9.152;2023-05-17T03:37:31;3.33;;;0.93;;
12296;SDS011;6211;49.124;9.152;2023-05-17T03:39:58;0.70;;;0.70;;
12296;SDS011;6211;49.124;9.152;2023-05-17T03:42:25;1.13;;;1.02;;
12296;SDS011;6211;49.124;9.152;2023-05-17T03:44:53;0.88;;;0.88;;
12296;SDS011;6211;49.124;9.152;2023-05-17T03:47:20;1.85;;;0.80;;
12296;SDS011;6211;49.124;9.152;2023-05-17T03:49:48;0.90;;;0.90;;
12296;SDS011;6211;49.124;9.152;2023-05-17T03:52:15;1.65;;;0.88;;
12296;SDS011;6211;49.124;9.152;2023-05-17T03:54:42;3.60;;;1.02;;
12296;SDS011;6211;49.124;9.152;2023-05-17T03:57:09;0.70;;;0.70;;
12296;SDS011;6211;49.124;9.152;2023-05-17T03:59:36;3.00;;;1.50;;
12296;SDS011;6211;49.124;9.152;2023-05-17T04:02:05;6.53;;;0.98;;
12296;SDS011;6211;49.124;9.152;2023-05-17T04:04:32;0.70;;;0.65;;
12296;SDS011;6211;49.124;9.152;2023-05-17T04:06:59;1.13;;;1.00;;
12296;SDS011;6211;49.124;9.152;2023-05-17T04:09:26;1.15;;;0.60;;
12296;SDS011;6211;49.124;9.152;2023-05-17T04:11:53;0.98;;;0.98;;
12296;SDS011;6211;49.124;9.152;2023-05-17T04:14:20;2.30;;;0.68;;
12296;SDS011;6211;49.124;9.152;2023-05-17T04:16:47;0.80;;;0.80;;
12296;SDS011;6211;49.124;9.152;2023-05-17T04:19:16;1.58;;;0.70;;
12296;SDS011;6211;49.124;9.152;2023-05-17T04:21:43;1.17;;;0.95;;
12296;SDS011;6211;49.124;9.152;2023-05-17T04:24:10;0.90;;;0.63;;
12296;SDS011;6211;49.124;9.152;2023-05-17T04:26:37;0.90;;;0.80;;
12296;SDS011;6211;49.124;9.152;2023-05-17T04:29:05;0.85;;;0.85;;
12296;SDS011;6211;49.124;9.152;2023-05-17T04:31:32;1.60;;;1.02;;
12296;SDS011;6211;49.124;9.152;2023-05-17T04:33:59;2.50;;;0.70;;
12296;SDS011;6211;49.124;9.152;2023-05-17T04:36:27;0.82;;;0.82;;
12296;SDS011;6211;49.124;9.152;2023-05-17T04:38:55;0.70;;;0.70;;
12296;SDS011;6211;49.124;9.152;2023-05-17T04:41:22;0.88;;;0.70;;
12296;SDS011;6211;49.124;9.152;2023-05-17T04:43:49;1.55;;;0.95;;
12296;SDS011;6211;49.124;9.152;2023-05-17T04:46:16;0.80;;;0.80;;
12296;SDS011;6211;49.124;9.152;2023-05-17T04:48:43;3.65;;;0.95;;
12296;SDS011;6211;49.124;9.152;2023-05-17T04:51:11;2.63;;;0.90;;
12296;SDS011;6211;49.124;9.152;2023-05-17T04:53:39;5.20;;;0.90;;
12296;SDS011;6211;49.124;9.152;2023-05-17T04:56:06;1.08;;;0.60;;
12296;SDS011;6211;49.124;9.152;2023-05-17T04:58:33;0.60;;;0.60;;
12296;SDS011;6211;49.124;9.152;2023-05-17T05:01:00;0.60;;;0.60;;
12296;SDS011;6211;49.124;9.152;2023-05-17T05:03:28;1.52;;;0.68;;
12296;SDS011;6211;49.124;9.152;2023-05-17T05:05:55;1.25;;;0.90;;
12296;SDS011;6211;49.124;9.152;2023-05-17T05:08:22;1.10;;;0.50;;
12296;SDS011;6211;49.124;9.152;2023-05-17T05:10:51;0.80;;;0.80;;
12296;SDS011;6211;49.124;9.152;2023-05-17T05:13:18;1.20;;;1.10;;
12296;SDS011;6211;49.124;9.152;2023-05-17T05:15:45;1.10;;;1.00;;
12296;SDS011;6211;49.124;9.152;2023-05-17T05:18:12;0.90;;;0.90;;
12296;SDS011;6211;49.124;9.152;2023-05-17T05:20:39;1.50;;;0.95;;
12296;SDS011;6211;49.124;9.152;2023-05-17T05:23:06;1.30;;;1.20;;
12296;SDS011;6211;49.124;9.152;2023-05-17T05:25:33;1.17;;;1.08;;
12296;SDS011;6211;49.124;9.152;2023-05-17T05:28:02;0.95;;;0.95;;
12296;SDS011;6211;49.124;9.152;2023-05-17T05:30:30;1.17;;;1.08;;
12296;SDS011;6211;49.124;9.152;2023-05-17T05:32:57;1.52;;;1.10;;
12296;SDS011;6211;49.124;9.152;2023-05-17T05:35:24;3.40;;;1.30;;
12296;SDS011;6211;49.124;9.152;2023-05-17T05:37:54;0.90;;;0.90;;
12296;SDS011;6211;49.124;9.152;2023-05-17T05:40:21;1.77;;;1.10;;
12296;SDS011;6211;49.124;9.152;2023-05-17T05:42:48;0.90;;;0.90;;
12296;SDS011;6211;49.124;9.152;2023-05-17T05:45:17;2.40;;;1.15;;
12296;SDS011;6211;49.124;9.152;2023-05-17T05:47:45;1.48;;;1.23;;
12296;SDS011;6211;49.124;9.152;2023-05-17T05:50:12;3.35;;;1.13;;
12296;SDS011;6211;49.124;9.152;2023-05-17T05:52:39;1.45;;;0.98;;
12296;SDS011;6211;49.124;9.152;2023-05-17T05:55:07;2.38;;;1.35;;
12296;SDS011;6211;49.124;9.152;2023-05-17T05:57:34;1.77;;;1.10;;
12296;SDS011;6211;49.124;9.152;2023-05-17T06:00:01;2.08;;;1.40;;
12296;SDS011;6211;49.124;9.152;2023-05-17T06:02:31;2.90;;;1.20;;
12296;SDS011;6211;49.124;9.152;2023-05-17T06:04:58;1.92;;;1.35;;
12296;SDS011;6211;49.124;9.152;2023-05-17T06:07:27;3.20;;;1.10;;
12296;SDS011;6211;49.124;9.152;2023-05-17T06:09:54;1.33;;;1.23;;
12296;SDS011;6211;49.124;9.152;2023-05-17T06:12:21;1.60;;;1.38;;
12296;SDS011;6211;49.124;9.152;2023-05-17T06:14:48;1.88;;;1.20;;
12296;SDS011;6211;49.124;9.152;2023-05-17T06:17:16;1.58;;;1.38;;
12296;SDS011;6211;49.124;9.152;2023-05-17T06:19:44;1.58;;;1.38;;
12296;SDS011;6211;49.124;9.152;2023-05-17T06:22:13;2.38;;;1.40;;
12296;SDS011;6211;49.124;9.152;2023-05-17T06:24:40;1.27;;;1.17;;
12296;SDS011;6211;49.124;9.152;2023-05-17T06:27:07;2.35;;;1.45;;
12296;SDS011;6211;49.124;9.152;2023-05-17T06:29:34;3.83;;;1.80;;
12296;SDS011;6211;49.124;9.152;2023-05-17T06:32:01;1.75;;;1.30;;
12296;SDS011;6211;49.124;9.152;2023-05-17T06:34:28;1.23;;;1.15;;
12296;SDS011;6211;49.124;9.152;2023-05-17T06:36:57;3.08;;;1.48;;
12296;SDS011;6211;49.124;9.152;2023-05-17T06:39:24;1.85;;;1.38;;
12296;SDS011;6211;49.124;9.152;2023-05-17T06:41:51;4.00;;;1.33;;
12296;SDS011;6211;49.124;9.152;2023-05-17T06:44:18;2.63;;;1.05;;
12296;SDS011;6211;49.124;9.152;2023-05-17T06:46:45;5.10;;;1.60;;
12296;SDS011;6211;49.124;9.152;2023-05-17T06:49:12;2.85;;;1.65;;
12296;SDS011;6211;49.124;9.152;2023-05-17T06:51:39;1.52;;;1.33;;
12296;SDS011;6211;49.124;9.152;2023-05-17T06:54:08;1.95;;;1.27;;
12296;SDS011;6211;49.124;9.152;2023-05-17T06:56:35;2.17;;;1.58;;
12296;SDS011;6211;49.124;9.152;2023-05-17T06:59:02;1.80;;;1.33;;
12296;SDS011;6211;49.124;9.152;2023-05-17T07:01:29;3.22;;;1.40;;
12296;SDS011;6211;49.124;9.152;2023-05-17T07:03:56;3.63;;;1.50;;
12296;SDS011;6211;49.124;9.152;2023-05-17T07:06:23;2.17;;;1.38;;
12296;SDS011;6211;49.124;9.152;2023-05-17T07:08:50;2.20;;;1.30;;
12296;SDS011;6211;49.124;9.152;2023-05-17T07:11:19;3.92;;;1.30;;
12296;SDS011;6211;49.124;9.152;2023-05-17T07:13:46;2.72;;;1.60;;
12296;SDS011;6211;49.124;9.152;2023-05-17T07:16:14;1.38;;;1.25;;
12296;SDS011;6211;49.124;9.152;2023-05-17T07:18:41;3.20;;;1.40;;
12296;SDS011;6211;49.124;9.152;2023-05-17T07:21:08;3.05;;;1.73;;
12296;SDS011;6211;49.124;9.152;2023-05-17T07:23:35;4.35;;;1.65;;
12296;SDS011;6211;49.124;9.152;2023-05-17T07:26:03;1.70;;;1.17;;
12296;SDS011;6211;49.124;9.152;2023-05-17T07:28:31;4.88;;;1.77;;
12296;SDS011;6211;49.124;9.152;2023-05-17T07:30:58;2.00;;;1.60;;
12296;SDS011;6211;49.124;9.152;2023-05-17T07:33:25;7.43;;;1.55;;
12296;SDS011;6211;49.124;9.152;2023-05-17T07:35:52;4.70;;;1.20;;
12296;SDS011;6211;49.124;9.152;2023-05-17T07:38:19;5.55;;;1.77;;
12296;SDS011;6211;49.124;9.152;2023-05-17T07:40:47;2.80;;;1.70;;
12296;SDS011;6211;49.124;9.152;2023-05-17T07:43:14;2.47;;;1.17;;
12296;SDS011;6211;49.124;9.152;2023-05-17T07:45:43;3.05;;;1.30;;
12296;SDS011;6211;49.124;9.152;2023-05-17T07:48:11;4.22;;;1.55;;
12296;SDS011;6211;49.124;9.152;2023-05-17T07:50:38;2.60;;;1.45;;
12296;SDS011;6211;49.124;9.152;2023-05-17T07:53:05;4.25;;;1.00;;
12296;SDS011;6211;49.124;9.152;2023-05-17T07:55:32;5.53;;;1.80;;
12296;SDS011;6211;49.124;9.152;2023-05-17T07:57:59;2.60;;;1.67;;
12296;SDS011;6211;49.124;9.152;2023-05-17T08:00:27;7.35;;;1.70;;
12296;SDS011;6211;49.124;9.152;2023-05-17T08:02:55;2.28;;;1.30;;
12296;SDS011;6211;49.124;9.152;2023-05-17T08:05:22;1.95;;;1.40;;
12296;SDS011;6211;49.124;9.152;2023-05-17T08:07:50;4.68;;;1.42;;
12296;SDS011;6211;49.124;9.152;2023-05-17T08:10:17;3.58;;;1.55;;
12296;SDS011;6211;49.124;9.152;2023-05-17T08:12:44;2.22;;;1.27;;
12296;SDS011;6211;49.124;9.152;2023-05-17T08:15:11;6.50;;;1.88;;
12296;SDS011;6211;49.124;9.152;2023-05-17T08:17:38;3.92;;;1.88;;
12296;SDS011;6211;49.124;9.152;2023-05-17T08:20:08;3.80;;;1.63;;
12296;SDS011;6211;49.124;9.152;2023-05-17T08:22:35;5.07;;;1.45;;
12296;SDS011;6211;49.124;9.152;2023-05-17T08:25:02;3.25;;;1.50;;
12296;SDS011;6211;49.124;9.152;2023-05-17T08:27:29;3.67;;;1.50;;
12296;SDS011;6211;49.124;9.152;2023-05-17T08:29:57;2.22;;;1.48;;
12296;SDS011;6211;49.124;9.152;2023-05-17T08:32:24;3.28;;;1.70;;
12296;SDS011;6211;49.124;9.152;2023-05-17T08:34:52;2.78;;;1.33;;
12296;SDS011;6211;49.124;9.152;2023-05-17T08:37:21;1.88;;;1.45;;
12296;SDS011;6211;49.124;9.152;2023-05-17T08:39:48;1.83;;;1.30;;
12296;SDS011;6211;49.124;9.152;2023-05-17T08:42:15;2.70;;;1.60;;
12296;SDS011;6211;49.124;9.152;2023-05-17T08:44:45;1.85;;;1.40;;
12296;SDS011;6211;49.124;9.152;2023-05-17T08:47:12;4.25;;;1.67;;
12296;SDS011;6211;49.124;9.152;2023-05-17T08:49:50;2.95;;;1.60;;
12296;SDS011;6211;49.124;9.152;2023-05-17T08:52:17;2.60;;;1.60;;
12296;SDS011;6211;49.124;9.152;2023-05-17T08:54:45;2.85;;;1.60;;
12296;SDS011;6211;49.124;9.152;2023-05-17T08:57:13;1.90;;;1.42;;
12296;SDS011;6211;49.124;9.152;2023-05-17T08:59:42;3.63;;;1.38;;
12296;SDS011;6211;49.124;9.152;2023-05-17T09:02:10;2.00;;;1.42;;
12296;SDS011;6211;49.124;9.152;2023-05-17T09:04:37;4.95;;;1.42;;
12296;SDS011;6211;49.124;9.152;2023-05-17T09:07:05;2.83;;;1.52;;
12296;SDS011;6211;49.124;9.152;2023-05-17T09:09:32;1.73;;;1.20;;
12296;SDS011;6211;49.124;9.152;2023-05-17T09:12:01;2.25;;;1.27;;
12296;SDS011;6211;49.124;9.152;2023-05-17T09:14:31;2.15;;;1.50;;
12296;SDS011;6211;49.124;9.152;2023-05-17T09:16:59;3.30;;;1.63;;
12296;SDS011;6211;49.124;9.152;2023-05-17T09:19:27;2.35;;;1.42;;
12296;SDS011;6211;49.124;9.152;2023-05-17T09:21:54;1.77;;;1.10;;
12296;SDS011;6211;49.124;9.152;2023-05-17T09:24:26;3.60;;;1.60;;
12296;SDS011;6211;49.124;9.152;2023-05-17T09:26:54;3.75;;;1.60;;
12296;SDS011;6211;49.124;9.152;2023-05-17T09:29:28;2.53;;;1.40;;
12296;SDS011;6211;49.124;9.152;2023-05-17T09:31:56;1.88;;;1.17;;
12296;SDS011;6211;49.124;9.152;2023-05-17T09:34:23;1.20;;;1.10;;
12296;SDS011;6211;49.124;9.152;2023-05-17T09:36:50;3.53;;;1.17;;
12296;SDS011;6211;49.124;9.152;2023-05-17T09:39:18;2.03;;;1.10;;
12296;SDS011;6211;49.124;9.152;2023-05-17T09:41:46;2.25;;;1.40;;
12296;SDS011;6211;49.124;9.152;2023-05-17T09:44:15;2.13;;;1.40;;
12296;SDS011;6211;49.124;9.152;2023-05-17T09:46:44;2.22;;;1.13;;
12296;SDS011;6211;49.124;9.152;2023-05-17T09:49:12;4.10;;;1.58;;
12296;SDS011;6211;49.124;9.152;2023-05-17T09:51:39;4.32;;;1.45;;
12296;SDS011;6211;49.124;9.152;2023-05-17T09:54:07;1.50;;;0.82;;
12296;SDS011;6211;49.124;9.152;2023-05-17T09:56:35;3.35;;;1.30;;
12296;SDS011;6211;49.124;9.152;2023-05-17T09:59:02;1.02;;;0.93;;
12296;SDS011;6211;49.124;9.152;2023-05-17T10:01:30;1.20;;;0.95;;
12296;SDS011;6211;49.124;9.152;2023-05-17T10:03:59;2.15;;;1.23;;
12296;SDS011;6211;49.124;9.152;2023-05-17T10:06:27;1.90;;;0.95;;
12296;SDS011;6211;49.124;9.152;2023-05-17T10:08:55;3.25;;;1.30;;
12296;SDS011;6211;49.124;9.152;2023-05-17T10:11:23;1.75;;;1.23;;
12296;SDS011;6211;49.124;9.152;2023-05-17T10:13:54;1.83;;;1.23;;
12296;SDS011;6211;49.124;9.152;2023-05-17T10:16:24;1.30;;;1.10;;
12296;SDS011;6211;49.124;9.152;2023-05-17T10:18:52;3.47;;;1.00;;
12296;SDS011;6211;49.124;9.152;2023-05-17T10:21:21;2.60;;;1.30;;
12296;SDS011;6211;49.124;9.152;2023-05-17T10:23:48;1.60;;;1.27;;
12296;SDS011;6211;49.124;9.152;2023-05-17T10:26:15;3.63;;;1.23;;
12296;SDS011;6211;49.124;9.152;2023-05-17T10:28:42;5.97;;;1.50;;
12296;SDS011;6211;49.124;9.152;2023-05-17T10:31:11;3.10;;;1.00;;
12296;SDS011;6211;49.124;9.152;2023-05-17T10:33:38;2.50;;;1.30;;
12296;SDS011;6211;49.124;9.152;2023-05-17T10:36:06;2.22;;;1.33;;
12296;SDS011;6211;49.124;9.152;2023-05-17T10:38:35;1.55;;;1.15;;
12296;SDS011;6211;49.124;9.152;2023-05-17T10:41:02;2.92;;;1.40;;
12296;SDS011;6211;49.124;9.152;2023-05-17T10:43:30;2.25;;;1.08;;
12296;SDS011;6211;49.124;9.152;2023-05-17T10:45:57;1.85;;;1.20;;
12296;SDS011;6211;49.124;9.152;2023-05-17T10:48:26;3.00;;;1.40;;
12296;SDS011;6211;49.124;9.152;2023-05-17T10:50:54;2.17;;;1.23;;
12296;SDS011;6211;49.124;9.152;2023-05-17T10:53:22;8.23;;;3.13;;
12296;SDS011;6211;49.124;9.152;2023-05-17T10:55:50;7.35;;;2.35;;
12296;SDS011;6211;49.124;9.152;2023-05-17T10:58:18;2.25;;;1.42;;
12296;SDS011;6211;49.124;9.152;2023-05-17T11:00:46;3.45;;;1.20;;
12296;SDS011;6211;49.124;9.152;2023-05-17T11:03:15;1.70;;;1.33;;
12296;SDS011;6211;49.124;9.152;2023-05-17T11:05:42;4.45;;;1.30;;
12296;SDS011;6211;49.124;9.152;2023-05-17T11:08:13;1.75;;;1.33;;
12296;SDS011;6211;49.124;9.152;2023-05-17T11:13:28;2.08;;;1.48;;
12296;SDS011;6211;49.124;9.152;2023-05-17T11:16:01;2.03;;;1.00;;
12296;SDS011;6211;49.124;9.152;2023-05-17T11:18:44;5.32;;;1.58;;
12296;SDS011;6211;49.124;9.152;2023-05-17T11:21:12;1.70;;;1.17;;
12296;SDS011;6211;49.124;9.152;2023-05-17T11:23:40;2.05;;;1.40;;
12296;SDS011;6211;49.124;9.152;2023-05-17T11:26:11;3.28;;;1.58;;
12296;SDS011;6211;49.124;9.152;2023-05-17T11:28:39;3.30;;;1.50;;
12296;SDS011;6211;49.124;9.152;2023-05-17T11:31:07;4.30;;;1.45;;
12296;SDS011;6211;49.124;9.152;2023-05-17T11:33:37;3.15;;;1.40;;
12296;SDS011;6211;49.124;9.152;2023-05-17T11:36:05;3.28;;;1.35;;
12296;SDS011;6211;49.124;9.152;2023-05-17T11:38:33;4.65;;;1.30;;
12296;SDS011;6211;49.124;9.152;2023-05-17T11:41:14;2.28;;;1.50;;
12296;SDS011;6211;49.124;9.152;2023-05-17T11:43:45;3.88;;;1.70;;
12296;SDS011;6211;49.124;9.152;2023-05-17T11:46:17;2.20;;;1.23;;
12296;SDS011;6211;49.124;9.152;2023-05-17T11:48:45;3.05;;;1.65;;
12296;SDS011;6211;49.124;9.152;2023-05-17T11:51:13;3.15;;;1.50;;
12296;SDS011;6211;49.124;9.152;2023-05-17T11:53:40;3.47;;;1.70;;
12296;SDS011;6211;49.124;9.152;2023-05-17T11:56:07;3.20;;;1.60;;
12296;SDS011;6211;49.124;9.152;2023-05-17T11:58:35;2.90;;;1.50;;
12296;SDS011;6211;49.124;9.152;2023-05-17T12:01:04;3.88;;;1.85;;
12296;SDS011;6211;49.124;9.152;2023-05-17T12:03:33;3.15;;;1.35;;
12296;SDS011;6211;49.124;9.152;2023-05-17T12:06:01;4.15;;;2.13;;
12296;SDS011;6211;49.124;9.152;2023-05-17T12:08:29;2.17;;;1.58;;
12296;SDS011;6211;49.124;9.152;2023-05-17T12:10:57;5.65;;;1.50;;
12296;SDS011;6211;49.124;9.152;2023-05-17T12:13:26;2.65;;;1.40;;
12296;SDS011;6211;49.124;9.152;2023-05-17T12:15:54;3.83;;;1.38;;
12296;SDS011;6211;49.124;9.152;2023-05-17T12:18:25;1.48;;;1.38;;
12296;SDS011;6211;49.124;9.152;2023-05-17T12:21:00;2.42;;;1.58;;
12296;SDS011;6211;49.124;9.152;2023-05-17T12:23:28;3.10;;;1.40;;
12296;SDS011;6211;49.124;9.152;2023-05-17T12:26:02;5.53;;;1.63;;
12296;SDS011;6211;49.124;9.152;2023-05-17T12:28:29;3.63;;;1.77;;
12296;SDS011;6211;49.124;9.152;2023-05-17T12:30:56;1.77;;;1.25;;
12296;SDS011;6211;49.124;9.152;2023-05-17T12:33:28;2.60;;;1.50;;
12296;SDS011;6211;49.124;9.152;2023-05-17T12:35:55;1.98;;;1.27;;
12296;SDS011;6211;49.124;9.152;2023-05-17T12:38:23;2.97;;;1.60;;
12296;SDS011;6211;49.124;9.152;2023-05-17T12:40:51;2.90;;;1.70;;
12296;SDS011;6211;49.124;9.152;2023-05-17T12:43:21;2.85;;;1.38;;
12296;SDS011;6211;49.124;9.152;2023-05-17T12:45:48;2.30;;;1.45;;
12296;SDS011;6211;49.124;9.152;2023-05-17T12:48:15;1.90;;;1.40;;
12296;SDS011;6211;49.124;9.152;2023-05-17T12:50:44;3.83;;;1.30;;
12296;SDS011;6211;49.124;9.152;2023-05-17T12:53:13;2.92;;;1.42;;
12296;SDS011;6211;49.124;9.152;2023-05-17T12:55:40;2.25;;;1.30;;
12296;SDS011;6211;49.124;9.152;2023-05-17T12:58:07;1.80;;;1.52;;
12296;SDS011;6211;49.124;9.152;2023-05-17T13:00:34;1.80;;;1.30;;
12296;SDS011;6211;49.124;9.152;2023-05-17T13:03:01;1.67;;;1.40;;
12296;SDS011;6211;49.124;9.152;2023-05-17T13:05:34;2.33;;;1.30;;
12296;SDS011;6211;49.124;9.152;2023-05-17T13:10:45;3.80;;;1.50;;
12296;SDS011;6211;49.124;9.152;2023-05-17T13:13:16;1.95;;;1.42;;
12296;SDS011;6211;49.124;9.152;2023-05-17T13:15:44;2.08;;;1.70;;
12296;SDS011;6211;49.124;9.152;2023-05-17T13:18:11;1.77;;;1.55;;
12296;SDS011;6211;49.124;9.152;2023-05-17T13:20:40;2.30;;;1.50;;
12296;SDS011;6211;49.124;9.152;2023-05-17T13:23:07;3.60;;;1.90;;
12296;SDS011;6211;49.124;9.152;2023-05-17T13:25:34;3.22;;;1.60;;
12296;SDS011;6211;49.124;9.152;2023-05-17T13:28:03;2.20;;;1.70;;
12296;SDS011;6211;49.124;9.152;2023-05-17T13:30:30;2.42;;;1.50;;
12296;SDS011;6211;49.124;9.152;2023-05-17T13:32:57;3.72;;;2.13;;
12296;SDS011;6211;49.124;9.152;2023-05-17T13:35:24;2.70;;;1.77;;
12296;SDS011;6211;49.124;9.152;2023-05-17T13:37:51;4.78;;;2.00;;
12296;SDS011;6211;49.124;9.152;2023-05-17T13:40:18;4.53;;;1.80;;
12296;SDS011;6211;49.124;9.152;2023-05-17T13:42:46;3.28;;;1.75;;
12296;SDS011;6211;49.124;9.152;2023-05-17T13:45:14;3.63;;;1.42;;
12296;SDS011;6211;49.124;9.152;2023-05-17T13:47:41;2.00;;;1.52;;
12296;SDS011;6211;49.124;9.152;2023-05-17T13:50:09;3.00;;;1.50;;
12296;SDS011;6211;49.124;9.152;2023-05-17T13:52:36;2.75;;;1.52;;
12296;SDS011;6211;49.124;9.152;2023-05-17T13:55:03;4.40;;;1.70;;
12296;SDS011;6211;49.124;9.152;2023-05-17T13:57:31;4.22;;;1.77;;
12296;SDS011;6211;49.124;9.152;2023-05-17T13:59:58;2.97;;;1.60;;
12296;SDS011;6211;49.124;9.152;2023-05-17T14:02:26;2.25;;;1.67;;
12296;SDS011;6211;49.124;9.152;2023-05-17T14:04:53;3.58;;;1.45;;
12296;SDS011;6211;49.124;9.152;2023-05-17T14:07:21;2.70;;;1.77;;
12296;SDS011;6211;49.124;9.152;2023-05-17T14:09:48;2.25;;;1.45;;
12296;SDS011;6211;49.124;9.152;2023-05-17T14:12:15;2.70;;;1.77;;
12296;SDS011;6211;49.124;9.152;2023-05-17T14:14:42;2.28;;;1.85;;
12296;SDS011;6211;49.124;9.152;2023-05-17T14:17:09;2.58;;;1.75;;
12296;SDS011;6211;49.124;9.152;2023-05-17T14:19:38;3.25;;;1.77;;
12296;SDS011;6211;49.124;9.152;2023-05-17T14:22:05;1.90;;;1.52;;
12296;SDS011;6211;49.124;9.152;2023-05-17T14:24:33;4.10;;;1.73;;
12296;SDS011;6211;49.124;9.152;2023-05-17T14:27:00;2.33;;;1.42;;
12296;SDS011;6211;49.124;9.152;2023-05-17T14:29:27;5.15;;;2.15;;
12296;SDS011;6211;49.124;9.152;2023-05-17T14:31:55;3.40;;;1.88;;
12296;SDS011;6211;49.124;9.152;2023-05-17T14:34:22;2.35;;;1.88;;
12296;SDS011;6211;49.124;9.152;2023-05-17T14:36:51;1.52;;;1.40;;
12296;SDS011;6211;49.124;9.152;2023-05-17T14:39:18;3.35;;;1.80;;
12296;SDS011;6211;49.124;9.152;2023-05-17T14:41:45;3.38;;;1.70;;
12296;SDS011;6211;49.124;9.152;2023-05-17T14:44:12;2.33;;;1.55;;
12296;SDS011;6211;49.124;9.152;2023-05-17T14:46:40;3.28;;;1.58;;
12296;SDS011;6211;49.124;9.152;2023-05-17T14:49:07;3.33;;;1.63;;
12296;SDS011;6211;49.124;9.152;2023-05-17T14:51:34;2.80;;;1.77;;
12296;SDS011;6211;49.124;9.152;2023-05-17T14:54:03;2.38;;;1.45;;
12296;SDS011;6211;49.124;9.152;2023-05-17T14:56:30;2.92;;;1.65;;
12296;SDS011;6211;49.124;9.152;2023-05-17T14:58:58;2.70;;;1.73;;
12296;SDS011;6211;49.124;9.152;2023-05-17T15:01:25;1.80;;;1.27;;
12296;SDS011;6211;49.124;9.152;2023-05-17T15:03:53;2.58;;;1.60;;
12296;SDS011;6211;49.124;9.152;2023-05-17T15:06:20;3.85;;;2.00;;
12296;SDS011;6211;49.124;9.152;2023-05-17T15:08:49;2.90;;;1.52;;